sensor_id;sensor_type;location;lat;lon;timestamp;P1;durP1;ratioP1;P2;durP2;ratioP2
29934;SDS011;19905;53.370;-6.314;2023-05-27T00:00:52;6.00;;;2.50;;
29934;SDS011;19905;53.370;-6.314;2023-05-27T00:03:21;6.72;;;3.08;;
29934;SDS011;19905;53.370;-6.314;2023-05-27T00:05:50;10.70;;;4.00;;
29934;SDS011;19905;53.370;-6.314;2023-05-27T00:08:21;12.00;;;4.07;;
29934;SDS011;19905;53.370;-6.314;2023-05-27T00:10:50;13.25;;;4.45;;
29934;SDS011;19905;53.370;-6.314;2023-05-27T00:13:20;14.27;;;4.38;;
29934;SDS011;19905;53.370;-6.314;2023-05-27T00:15:49;14.85;;;4.18;;
29934;SDS011;19905;53.370;-6.314;2023-05-27T00:18:18;11.07;;;4.85;;
29934;SDS011;19905;53.370;-6.314;2023-05-27T00:20:47;9.40;;;4.28;;
29934;SDS011;19905;53.370;-6.314;2023-05-27T00:23:16;11.73;;;3.80;;
29934;SDS011;19905;53.370;-6.314;2023-05-27T00:25:46;11.68;;;3.28;;
29934;SDS011;19905;53.370;-6.314;2023-05-27T00:28:15;9.07;;;3.28;;
29934;SDS011;19905;53.370;-6.314;2023-05-27T00:30:45;7.30;;;2.88;;
29934;SDS011;19905;53.370;-6.314;2023-05-27T00:33:14;11.18;;;3.15;;
29934;SDS011;19905;53.370;-6.314;2023-05-27T00:35:43;11.27;;;3.15;;
29934;SDS011;19905;53.370;-6.314;2023-05-27T00:38:12;13.05;;;3.17;;
29934;SDS011;19905;53.370;-6.314;2023-05-27T00:40:41;12.15;;;3.05;;
29934;SDS011;19905;53.370;-6.314;2023-05-27T00:43:11;12.25;;;3.00;;
29934;SDS011;19905;53.370;-6.314;2023-05-27T00:45:40;12.30;;;3.10;;
29934;SDS011;19905;53.370;-6.314;2023-05-27T00:48:09;10.05;;;3.30;;
29934;SDS011;19905;53.370;-6.314;2023-05-27T00:50:38;10.20;;;3.28;;
29934;SDS011;19905;53.370;-6.314;2023-05-27T00:53:07;9.88;;;3.00;;
29934;SDS011;19905;53.370;-6.314;2023-05-27T00:55:36;10.23;;;3.30;;
29934;SDS011;19905;53.370;-6.314;2023-05-27T00:58:05;9.75;;;3.10;;
29934;SDS011;19905;53.370;-6.314;2023-05-27T01:00:37;11.50;;;3.40;;
29934;SDS011;19905;53.370;-6.314;2023-05-27T01:03:06;11.20;;;3.40;;
29934;SDS011;19905;53.370;-6.314;2023-05-27T01:05:35;11.80;;;3.50;;
29934;SDS011;19905;53.370;-6.314;2023-05-27T01:08:06;12.68;;;3.40;;
29934;SDS011;19905;53.370;-6.314;2023-05-27T01:10:44;9.70;;;3.33;;
29934;SDS011;19905;53.370;-6.314;2023-05-27T01:13:16;10.75;;;3.15;;
29934;SDS011;19905;53.370;-6.314;2023-05-27T01:15:53;9.13;;;3.58;;
29934;SDS011;19905;53.370;-6.314;2023-05-27T01:18:28;7.95;;;2.83;;
29934;SDS011;19905;53.370;-6.314;2023-05-27T01:21:02;6.70;;;3.08;;
29934;SDS011;19905;53.370;-6.314;2023-05-27T01:23:36;12.20;;;2.88;;
29934;SDS011;19905;53.370;-6.314;2023-05-27T01:26:06;12.75;;;3.10;;
29934;SDS011;19905;53.370;-6.314;2023-05-27T01:28:36;9.48;;;2.83;;
29934;SDS011;19905;53.370;-6.314;2023-05-27T01:31:06;10.50;;;2.90;;
29934;SDS011;19905;53.370;-6.314;2023-05-27T01:33:40;11.82;;;2.75;;
29934;SDS011;19905;53.370;-6.314;2023-05-27T01:36:16;11.55;;;3.00;;
29934;SDS011;19905;53.370;-6.314;2023-05-27T01:38:49;8.35;;;2.97;;
29934;SDS011;19905;53.370;-6.314;2023-05-27T01:41:22;10.85;;;3.20;;
29934;SDS011;19905;53.370;-6.314;2023-05-27T01:43:51;13.98;;;3.03;;
29934;SDS011;19905;53.370;-6.314;2023-05-27T01:46:21;9.35;;;2.83;;
29934;SDS011;19905;53.370;-6.314;2023-05-27T01:48:50;9.52;;;3.25;;
29934;SDS011;19905;53.370;-6.314;2023-05-27T01:51:19;11.88;;;3.03;;
29934;SDS011;19905;53.370;-6.314;2023-05-27T01:53:47;8.88;;;3.33;;
29934;SDS011;19905;53.370;-6.314;2023-05-27T01:56:17;8.38;;;3.08;;
29934;SDS011;19905;53.370;-6.314;2023-05-27T01:58:46;9.93;;;3.38;;
29934;SDS011;19905;53.370;-6.314;2023-05-27T02:01:15;9.15;;;2.90;;
29934;SDS011;19905;53.370;-6.314;2023-05-27T02:03:44;7.32;;;2.60;;
29934;SDS011;19905;53.370;-6.314;2023-05-27T02:06:13;10.13;;;3.33;;
29934;SDS011;19905;53.370;-6.314;2023-05-27T02:08:42;11.95;;;3.05;;
29934;SDS011;19905;53.370;-6.314;2023-05-27T02:11:10;9.23;;;2.83;;
29934;SDS011;19905;53.370;-6.314;2023-05-27T02:13:40;10.57;;;3.13;;
29934;SDS011;19905;53.370;-6.314;2023-05-27T02:16:09;10.45;;;2.72;;
29934;SDS011;19905;53.370;-6.314;2023-05-27T02:18:39;11.98;;;3.28;;
29934;SDS011;19905;53.370;-6.314;2023-05-27T02:21:07;10.43;;;2.92;;
29934;SDS011;19905;53.370;-6.314;2023-05-27T02:23:36;9.45;;;2.78;;
29934;SDS011;19905;53.370;-6.314;2023-05-27T02:26:05;13.20;;;3.00;;
29934;SDS011;19905;53.370;-6.314;2023-05-27T02:28:33;12.23;;;3.00;;
29934;SDS011;19905;53.370;-6.314;2023-05-27T02:31:04;8.63;;;2.90;;
29934;SDS011;19905;53.370;-6.314;2023-05-27T02:33:32;9.77;;;3.10;;
29934;SDS011;19905;53.370;-6.314;2023-05-27T02:36:01;10.52;;;2.97;;
29934;SDS011;19905;53.370;-6.314;2023-05-27T02:38:29;11.48;;;3.00;;
29934;SDS011;19905;53.370;-6.314;2023-05-27T02:40:58;9.15;;;3.25;;
29934;SDS011;19905;53.370;-6.314;2023-05-27T02:43:27;8.98;;;2.60;;
29934;SDS011;19905;53.370;-6.314;2023-05-27T02:45:56;7.60;;;2.88;;
29934;SDS011;19905;53.370;-6.314;2023-05-27T02:48:26;10.85;;;3.20;;
29934;SDS011;19905;53.370;-6.314;2023-05-27T02:50:55;11.27;;;3.00;;
29934;SDS011;19905;53.370;-6.314;2023-05-27T02:53:24;11.05;;;2.67;;
29934;SDS011;19905;53.370;-6.314;2023-05-27T02:55:52;9.50;;;2.50;;
29934;SDS011;19905;53.370;-6.314;2023-05-27T02:58:21;9.45;;;3.00;;
29934;SDS011;19905;53.370;-6.314;2023-05-27T03:00:50;15.73;;;3.75;;
29934;SDS011;19905;53.370;-6.314;2023-05-27T03:03:19;13.68;;;3.88;;
29934;SDS011;19905;53.370;-6.314;2023-05-27T03:05:49;9.68;;;3.53;;
29934;SDS011;19905;53.370;-6.314;2023-05-27T03:08:19;8.18;;;3.17;;
29934;SDS011;19905;53.370;-6.314;2023-05-27T03:10:47;10.27;;;3.45;;
29934;SDS011;19905;53.370;-6.314;2023-05-27T03:13:16;8.77;;;2.92;;
29934;SDS011;19905;53.370;-6.314;2023-05-27T03:15:45;12.13;;;3.13;;
29934;SDS011;19905;53.370;-6.314;2023-05-27T03:18:13;11.48;;;3.28;;
29934;SDS011;19905;53.370;-6.314;2023-05-27T03:20:42;10.95;;;3.53;;
29934;SDS011;19905;53.370;-6.314;2023-05-27T03:23:12;12.82;;;3.30;;
29934;SDS011;19905;53.370;-6.314;2023-05-27T03:25:41;13.07;;;3.22;;
29934;SDS011;19905;53.370;-6.314;2023-05-27T03:28:10;7.93;;;3.20;;
29934;SDS011;19905;53.370;-6.314;2023-05-27T03:30:38;8.93;;;3.13;;
29934;SDS011;19905;53.370;-6.314;2023-05-27T03:33:07;10.88;;;3.78;;
29934;SDS011;19905;53.370;-6.314;2023-05-27T03:35:36;8.05;;;3.00;;
29934;SDS011;19905;53.370;-6.314;2023-05-27T03:38:04;8.18;;;3.10;;
29934;SDS011;19905;53.370;-6.314;2023-05-27T03:40:35;9.63;;;2.90;;
29934;SDS011;19905;53.370;-6.314;2023-05-27T03:43:03;9.75;;;2.78;;
29934;SDS011;19905;53.370;-6.314;2023-05-27T03:45:32;9.32;;;3.42;;
29934;SDS011;19905;53.370;-6.314;2023-05-27T03:48:01;11.88;;;3.80;;
29934;SDS011;19905;53.370;-6.314;2023-05-27T03:50:30;9.57;;;3.47;;
29934;SDS011;19905;53.370;-6.314;2023-05-27T03:53:00;7.28;;;2.92;;
29934;SDS011;19905;53.370;-6.314;2023-05-27T03:55:29;6.63;;;3.03;;
29934;SDS011;19905;53.370;-6.314;2023-05-27T03:57:59;6.93;;;2.90;;
29934;SDS011;19905;53.370;-6.314;2023-05-27T04:00:28;9.23;;;3.25;;
29934;SDS011;19905;53.370;-6.314;2023-05-27T04:02:57;7.50;;;3.38;;
29934;SDS011;19905;53.370;-6.314;2023-05-27T04:05:26;10.10;;;3.60;;
29934;SDS011;19905;53.370;-6.314;2023-05-27T04:07:55;10.32;;;3.83;;
29934;SDS011;19905;53.370;-6.314;2023-05-27T04:10:23;10.45;;;3.47;;
29934;SDS011;19905;53.370;-6.314;2023-05-27T04:12:52;8.82;;;3.55;;
29934;SDS011;19905;53.370;-6.314;2023-05-27T04:15:22;10.05;;;3.22;;
29934;SDS011;19905;53.370;-6.314;2023-05-27T04:17:50;12.18;;;3.78;;
29934;SDS011;19905;53.370;-6.314;2023-05-27T04:20:19;8.07;;;2.88;;
29934;SDS011;19905;53.370;-6.314;2023-05-27T04:22:48;11.77;;;3.80;;
29934;SDS011;19905;53.370;-6.314;2023-05-27T04:25:17;9.52;;;3.97;;
29934;SDS011;19905;53.370;-6.314;2023-05-27T04:27:45;11.25;;;3.78;;
29934;SDS011;19905;53.370;-6.314;2023-05-27T04:30:14;11.15;;;3.80;;
29934;SDS011;19905;53.370;-6.314;2023-05-27T04:32:48;13.35;;;4.18;;
29934;SDS011;19905;53.370;-6.314;2023-05-27T04:35:16;11.45;;;4.20;;
29934;SDS011;19905;53.370;-6.314;2023-05-27T04:37:45;11.15;;;3.85;;
29934;SDS011;19905;53.370;-6.314;2023-05-27T04:40:15;9.63;;;3.95;;
29934;SDS011;19905;53.370;-6.314;2023-05-27T04:42:44;7.22;;;3.50;;
29934;SDS011;19905;53.370;-6.314;2023-05-27T04:45:14;9.95;;;3.55;;
29934;SDS011;19905;53.370;-6.314;2023-05-27T04:47:43;14.25;;;4.13;;
29934;SDS011;19905;53.370;-6.314;2023-05-27T04:50:14;9.48;;;3.88;;
29934;SDS011;19905;53.370;-6.314;2023-05-27T04:52:43;10.88;;;3.70;;
29934;SDS011;19905;53.370;-6.314;2023-05-27T04:55:12;13.05;;;3.83;;
29934;SDS011;19905;53.370;-6.314;2023-05-27T04:57:41;7.80;;;3.55;;
29934;SDS011;19905;53.370;-6.314;2023-05-27T05:00:10;11.50;;;3.63;;
29934;SDS011;19905;53.370;-6.314;2023-05-27T05:02:50;10.50;;;3.95;;
29934;SDS011;19905;53.370;-6.314;2023-05-27T05:05:29;11.88;;;3.92;;
29934;SDS011;19905;53.370;-6.314;2023-05-27T05:07:58;9.45;;;3.80;;
29934;SDS011;19905;53.370;-6.314;2023-05-27T05:10:28;11.20;;;3.33;;
29934;SDS011;19905;53.370;-6.314;2023-05-27T05:12:57;8.73;;;4.05;;
29934;SDS011;19905;53.370;-6.314;2023-05-27T05:15:27;7.97;;;3.40;;
29934;SDS011;19905;53.370;-6.314;2023-05-27T05:17:57;10.70;;;3.75;;
29934;SDS011;19905;53.370;-6.314;2023-05-27T05:20:27;11.15;;;3.80;;
29934;SDS011;19905;53.370;-6.314;2023-05-27T05:22:58;10.25;;;3.35;;
29934;SDS011;19905;53.370;-6.314;2023-05-27T05:25:27;9.95;;;3.33;;
29934;SDS011;19905;53.370;-6.314;2023-05-27T05:27:56;10.77;;;3.30;;
29934;SDS011;19905;53.370;-6.314;2023-05-27T05:30:25;6.55;;;2.85;;
29934;SDS011;19905;53.370;-6.314;2023-05-27T05:32:54;9.40;;;3.03;;
29934;SDS011;19905;53.370;-6.314;2023-05-27T05:35:22;6.65;;;2.70;;
29934;SDS011;19905;53.370;-6.314;2023-05-27T05:37:51;10.65;;;2.78;;
29934;SDS011;19905;53.370;-6.314;2023-05-27T05:40:22;10.73;;;2.88;;
29934;SDS011;19905;53.370;-6.314;2023-05-27T05:42:51;7.90;;;2.70;;
29934;SDS011;19905;53.370;-6.314;2023-05-27T05:45:19;6.72;;;2.50;;
29934;SDS011;19905;53.370;-6.314;2023-05-27T05:47:49;7.63;;;2.78;;
29934;SDS011;19905;53.370;-6.314;2023-05-27T05:50:18;8.55;;;2.75;;
29934;SDS011;19905;53.370;-6.314;2023-05-27T05:52:46;11.82;;;2.90;;
29934;SDS011;19905;53.370;-6.314;2023-05-27T05:55:15;7.95;;;2.75;;
29934;SDS011;19905;53.370;-6.314;2023-05-27T05:57:45;8.75;;;2.83;;
29934;SDS011;19905;53.370;-6.314;2023-05-27T06:00:14;8.25;;;2.40;;
29934;SDS011;19905;53.370;-6.314;2023-05-27T06:02:44;5.22;;;2.40;;
29934;SDS011;19905;53.370;-6.314;2023-05-27T06:05:13;8.27;;;2.60;;
29934;SDS011;19905;53.370;-6.314;2023-05-27T06:07:42;6.65;;;2.53;;
29934;SDS011;19905;53.370;-6.314;2023-05-27T06:10:10;7.40;;;2.58;;
29934;SDS011;19905;53.370;-6.314;2023-05-27T06:12:39;6.75;;;2.55;;
29934;SDS011;19905;53.370;-6.314;2023-05-27T06:15:09;6.15;;;2.35;;
29934;SDS011;19905;53.370;-6.314;2023-05-27T06:17:39;7.28;;;3.30;;
29934;SDS011;19905;53.370;-6.314;2023-05-27T06:20:07;5.78;;;2.50;;
29934;SDS011;19905;53.370;-6.314;2023-05-27T06:22:37;7.50;;;2.50;;
29934;SDS011;19905;53.370;-6.314;2023-05-27T06:25:06;5.70;;;2.40;;
29934;SDS011;19905;53.370;-6.314;2023-05-27T06:27:35;5.97;;;2.45;;
29934;SDS011;19905;53.370;-6.314;2023-05-27T06:30:04;7.22;;;2.20;;
29934;SDS011;19905;53.370;-6.314;2023-05-27T06:32:35;6.85;;;2.05;;
29934;SDS011;19905;53.370;-6.314;2023-05-27T06:35:04;8.95;;;2.35;;
29934;SDS011;19905;53.370;-6.314;2023-05-27T06:37:34;7.47;;;2.30;;
29934;SDS011;19905;53.370;-6.314;2023-05-27T06:40:03;7.50;;;2.17;;
29934;SDS011;19905;53.370;-6.314;2023-05-27T06:42:32;5.88;;;2.17;;
29934;SDS011;19905;53.370;-6.314;2023-05-27T06:45:01;8.30;;;2.25;;
29934;SDS011;19905;53.370;-6.314;2023-05-27T06:47:29;7.07;;;2.22;;
29934;SDS011;19905;53.370;-6.314;2023-05-27T06:50:00;5.85;;;2.38;;
29934;SDS011;19905;53.370;-6.314;2023-05-27T06:52:28;6.25;;;2.30;;
29934;SDS011;19905;53.370;-6.314;2023-05-27T06:54:57;5.88;;;2.33;;
29934;SDS011;19905;53.370;-6.314;2023-05-27T06:57:25;5.22;;;2.15;;
29934;SDS011;19905;53.370;-6.314;2023-05-27T06:59:55;5.93;;;2.15;;
29934;SDS011;19905;53.370;-6.314;2023-05-27T07:02:24;6.75;;;2.33;;
29934;SDS011;19905;53.370;-6.314;2023-05-27T07:04:53;5.45;;;2.15;;
29934;SDS011;19905;53.370;-6.314;2023-05-27T07:07:24;4.72;;;2.10;;
29934;SDS011;19905;53.370;-6.314;2023-05-27T07:09:53;5.20;;;2.33;;
29934;SDS011;19905;53.370;-6.314;2023-05-27T07:12:21;6.95;;;2.10;;
29934;SDS011;19905;53.370;-6.314;2023-05-27T07:14:51;5.40;;;1.95;;
29934;SDS011;19905;53.370;-6.314;2023-05-27T07:17:19;7.72;;;2.55;;
29934;SDS011;19905;53.370;-6.314;2023-05-27T07:19:48;7.35;;;2.00;;
29934;SDS011;19905;53.370;-6.314;2023-05-27T07:22:16;6.35;;;2.03;;
29934;SDS011;19905;53.370;-6.314;2023-05-27T07:24:47;12.02;;;2.60;;
29934;SDS011;19905;53.370;-6.314;2023-05-27T07:27:16;3.20;;;1.75;;
29934;SDS011;19905;53.370;-6.314;2023-05-27T07:29:45;6.00;;;1.88;;
29934;SDS011;19905;53.370;-6.314;2023-05-27T07:32:13;7.78;;;2.10;;
29934;SDS011;19905;53.370;-6.314;2023-05-27T07:34:42;9.80;;;2.05;;
29934;SDS011;19905;53.370;-6.314;2023-05-27T07:37:11;6.53;;;1.95;;
29934;SDS011;19905;53.370;-6.314;2023-05-27T07:39:39;7.53;;;1.80;;
29934;SDS011;19905;53.370;-6.314;2023-05-27T07:42:09;6.00;;;2.10;;
29934;SDS011;19905;53.370;-6.314;2023-05-27T07:44:38;4.32;;;1.83;;
29934;SDS011;19905;53.370;-6.314;2023-05-27T07:47:06;4.50;;;1.70;;
29934;SDS011;19905;53.370;-6.314;2023-05-27T07:49:35;6.93;;;1.90;;
29934;SDS011;19905;53.370;-6.314;2023-05-27T07:52:07;4.78;;;1.50;;
29934;SDS011;19905;53.370;-6.314;2023-05-27T07:54:36;6.13;;;1.80;;
29934;SDS011;19905;53.370;-6.314;2023-05-27T07:57:21;6.10;;;1.65;;
29934;SDS011;19905;53.370;-6.314;2023-05-27T07:59:50;7.57;;;1.95;;
29934;SDS011;19905;53.370;-6.314;2023-05-27T08:02:19;7.28;;;1.63;;
29934;SDS011;19905;53.370;-6.314;2023-05-27T08:04:49;3.53;;;1.58;;
29934;SDS011;19905;53.370;-6.314;2023-05-27T08:07:17;5.25;;;1.70;;
29934;SDS011;19905;53.370;-6.314;2023-05-27T08:09:46;2.78;;;1.05;;
29934;SDS011;19905;53.370;-6.314;2023-05-27T08:12:15;6.20;;;1.55;;
29934;SDS011;19905;53.370;-6.314;2023-05-27T08:14:45;2.95;;;1.23;;
29934;SDS011;19905;53.370;-6.314;2023-05-27T08:17:13;4.93;;;1.30;;
29934;SDS011;19905;53.370;-6.314;2023-05-27T08:19:42;3.40;;;1.27;;
29934;SDS011;19905;53.370;-6.314;2023-05-27T08:22:11;2.60;;;1.02;;
29934;SDS011;19905;53.370;-6.314;2023-05-27T08:24:39;2.97;;;1.15;;
29934;SDS011;19905;53.370;-6.314;2023-05-27T08:27:13;3.08;;;1.10;;
29934;SDS011;19905;53.370;-6.314;2023-05-27T08:29:43;3.13;;;1.15;;
29934;SDS011;19905;53.370;-6.314;2023-05-27T08:32:13;3.25;;;1.10;;
29934;SDS011;19905;53.370;-6.314;2023-05-27T08:34:41;8.07;;;1.20;;
29934;SDS011;19905;53.370;-6.314;2023-05-27T08:37:10;4.65;;;1.17;;
29934;SDS011;19905;53.370;-6.314;2023-05-27T08:39:38;6.13;;;1.15;;
29934;SDS011;19905;53.370;-6.314;2023-05-27T08:42:07;6.57;;;1.40;;
29934;SDS011;19905;53.370;-6.314;2023-05-27T08:44:36;3.00;;;1.38;;
29934;SDS011;19905;53.370;-6.314;2023-05-27T08:47:07;2.45;;;1.08;;
29934;SDS011;19905;53.370;-6.314;2023-05-27T08:49:36;4.00;;;1.20;;
29934;SDS011;19905;53.370;-6.314;2023-05-27T08:52:05;3.85;;;1.50;;
29934;SDS011;19905;53.370;-6.314;2023-05-27T08:54:36;2.72;;;1.30;;
29934;SDS011;19905;53.370;-6.314;2023-05-27T08:57:06;3.67;;;1.42;;
29934;SDS011;19905;53.370;-6.314;2023-05-27T08:59:37;4.43;;;1.38;;
29934;SDS011;19905;53.370;-6.314;2023-05-27T09:02:10;3.92;;;1.40;;
29934;SDS011;19905;53.370;-6.314;2023-05-27T09:04:40;4.78;;;1.50;;
29934;SDS011;19905;53.370;-6.314;2023-05-27T09:07:11;5.82;;;1.70;;
29934;SDS011;19905;53.370;-6.314;2023-05-27T09:09:40;3.30;;;1.40;;
29934;SDS011;19905;53.370;-6.314;2023-05-27T09:12:10;4.10;;;1.42;;
29934;SDS011;19905;53.370;-6.314;2023-05-27T09:14:39;5.05;;;1.52;;
29934;SDS011;19905;53.370;-6.314;2023-05-27T09:17:11;4.45;;;1.60;;
29934;SDS011;19905;53.370;-6.314;2023-05-27T09:19:40;3.65;;;1.40;;
29934;SDS011;19905;53.370;-6.314;2023-05-27T09:22:09;7.07;;;1.30;;
29934;SDS011;19905;53.370;-6.314;2023-05-27T09:24:45;6.60;;;1.40;;
29934;SDS011;19905;53.370;-6.314;2023-05-27T09:27:14;4.20;;;1.65;;
29934;SDS011;19905;53.370;-6.314;2023-05-27T09:29:46;3.10;;;1.20;;
29934;SDS011;19905;53.370;-6.314;2023-05-27T09:32:24;6.25;;;1.60;;
29934;SDS011;19905;53.370;-6.314;2023-05-27T09:34:53;6.18;;;1.50;;
29934;SDS011;19905;53.370;-6.314;2023-05-27T09:37:24;3.85;;;1.27;;
29934;SDS011;19905;53.370;-6.314;2023-05-27T09:39:58;4.63;;;1.70;;
29934;SDS011;19905;53.370;-6.314;2023-05-27T09:42:27;3.80;;;1.58;;
29934;SDS011;19905;53.370;-6.314;2023-05-27T09:45:07;3.17;;;1.20;;
29934;SDS011;19905;53.370;-6.314;2023-05-27T09:47:41;4.95;;;1.50;;
29934;SDS011;19905;53.370;-6.314;2023-05-27T09:50:18;6.15;;;1.65;;
29934;SDS011;19905;53.370;-6.314;2023-05-27T09:52:49;5.22;;;2.10;;
29934;SDS011;19905;53.370;-6.314;2023-05-27T09:55:21;3.95;;;1.45;;
29934;SDS011;19905;53.370;-6.314;2023-05-27T09:57:52;4.07;;;1.35;;
29934;SDS011;19905;53.370;-6.314;2023-05-27T10:00:21;6.63;;;1.70;;
29934;SDS011;19905;53.370;-6.314;2023-05-27T10:02:53;5.25;;;1.65;;
29934;SDS011;19905;53.370;-6.314;2023-05-27T10:05:26;6.78;;;1.70;;
29934;SDS011;19905;53.370;-6.314;2023-05-27T10:07:57;4.65;;;1.50;;
29934;SDS011;19905;53.370;-6.314;2023-05-27T10:10:43;4.50;;;1.52;;
29934;SDS011;19905;53.370;-6.314;2023-05-27T10:13:17;4.63;;;1.30;;
29934;SDS011;19905;53.370;-6.314;2023-05-27T10:18:27;4.00;;;1.42;;
29934;SDS011;19905;53.370;-6.314;2023-05-27T10:20:58;3.42;;;1.55;;
29934;SDS011;19905;53.370;-6.314;2023-05-27T10:23:29;4.40;;;1.40;;
29934;SDS011;19905;53.370;-6.314;2023-05-27T10:26:00;4.50;;;1.52;;
29934;SDS011;19905;53.370;-6.314;2023-05-27T10:28:37;2.78;;;1.20;;
29934;SDS011;19905;53.370;-6.314;2023-05-27T10:31:09;3.70;;;1.30;;
29934;SDS011;19905;53.370;-6.314;2023-05-27T10:33:42;3.25;;;1.65;;
29934;SDS011;19905;53.370;-6.314;2023-05-27T10:36:13;4.78;;;1.50;;
29934;SDS011;19905;53.370;-6.314;2023-05-27T10:38:54;4.13;;;1.30;;
29934;SDS011;19905;53.370;-6.314;2023-05-27T10:41:26;5.35;;;1.85;;
29934;SDS011;19905;53.370;-6.314;2023-05-27T10:43:55;4.85;;;1.77;;
29934;SDS011;19905;53.370;-6.314;2023-05-27T10:46:24;5.78;;;1.67;;
29934;SDS011;19905;53.370;-6.314;2023-05-27T10:48:55;6.60;;;1.85;;
29934;SDS011;19905;53.370;-6.314;2023-05-27T10:51:31;6.18;;;1.70;;
29934;SDS011;19905;53.370;-6.314;2023-05-27T10:54:02;6.57;;;1.80;;
29934;SDS011;19905;53.370;-6.314;2023-05-27T10:56:53;5.80;;;1.60;;
29934;SDS011;19905;53.370;-6.314;2023-05-27T10:59:28;6.43;;;1.77;;
29934;SDS011;19905;53.370;-6.314;2023-05-27T11:02:07;5.78;;;1.80;;
29934;SDS011;19905;53.370;-6.314;2023-05-27T11:04:38;3.97;;;1.70;;
29934;SDS011;19905;53.370;-6.314;2023-05-27T11:07:08;6.20;;;1.70;;
29934;SDS011;19905;53.370;-6.314;2023-05-27T11:09:49;5.13;;;1.70;;
29934;SDS011;19905;53.370;-6.314;2023-05-27T11:12:21;4.35;;;1.60;;
29934;SDS011;19905;53.370;-6.314;2023-05-27T11:14:54;6.47;;;1.48;;
29934;SDS011;19905;53.370;-6.314;2023-05-27T11:19:58;3.92;;;1.48;;
29934;SDS011;19905;53.370;-6.314;2023-05-27T11:22:29;4.55;;;1.70;;
29934;SDS011;19905;53.370;-6.314;2023-05-27T11:24:59;5.32;;;1.85;;
29934;SDS011;19905;53.370;-6.314;2023-05-27T11:27:33;4.25;;;1.92;;
29934;SDS011;19905;53.370;-6.314;2023-05-27T11:30:07;5.57;;;2.10;;
29934;SDS011;19905;53.370;-6.314;2023-05-27T11:32:39;5.03;;;2.22;;
29934;SDS011;19905;53.370;-6.314;2023-05-27T11:35:17;5.65;;;2.10;;
29934;SDS011;19905;53.370;-6.314;2023-05-27T11:37:49;7.30;;;2.50;;
29934;SDS011;19905;53.370;-6.314;2023-05-27T11:40:20;7.22;;;2.30;;
29934;SDS011;19905;53.370;-6.314;2023-05-27T11:43:10;7.45;;;2.17;;
29934;SDS011;19905;53.370;-6.314;2023-05-27T11:45:52;7.30;;;2.22;;
29934;SDS011;19905;53.370;-6.314;2023-05-27T11:48:33;6.78;;;2.70;;
29934;SDS011;19905;53.370;-6.314;2023-05-27T11:51:04;7.38;;;2.50;;
29934;SDS011;19905;53.370;-6.314;2023-05-27T11:53:33;5.78;;;2.17;;
29934;SDS011;19905;53.370;-6.314;2023-05-27T11:56:09;5.35;;;2.20;;
29934;SDS011;19905;53.370;-6.314;2023-05-27T11:58:39;6.05;;;2.25;;
29934;SDS011;19905;53.370;-6.314;2023-05-27T12:01:13;8.13;;;2.63;;
29934;SDS011;19905;53.370;-6.314;2023-05-27T12:03:48;7.80;;;2.60;;
29934;SDS011;19905;53.370;-6.314;2023-05-27T12:06:24;8.35;;;2.42;;
29934;SDS011;19905;53.370;-6.314;2023-05-27T12:08:54;8.05;;;2.22;;
29934;SDS011;19905;53.370;-6.314;2023-05-27T12:11:32;7.32;;;2.92;;
29934;SDS011;19905;53.370;-6.314;2023-05-27T12:16:53;6.97;;;2.45;;
29934;SDS011;19905;53.370;-6.314;2023-05-27T12:19:22;8.25;;;2.95;;
29934;SDS011;19905;53.370;-6.314;2023-05-27T12:21:58;6.45;;;2.60;;
29934;SDS011;19905;53.370;-6.314;2023-05-27T12:24:27;6.88;;;3.08;;
29934;SDS011;19905;53.370;-6.314;2023-05-27T12:27:02;6.93;;;2.83;;
29934;SDS011;19905;53.370;-6.314;2023-05-27T12:29:31;6.95;;;2.70;;
29934;SDS011;19905;53.370;-6.314;2023-05-27T12:32:03;8.35;;;3.05;;
29934;SDS011;19905;53.370;-6.314;2023-05-27T12:34:38;7.80;;;3.28;;
29934;SDS011;19905;53.370;-6.314;2023-05-27T12:37:09;7.22;;;3.20;;
29934;SDS011;19905;53.370;-6.314;2023-05-27T12:39:45;7.32;;;3.38;;
29934;SDS011;19905;53.370;-6.314;2023-05-27T12:42:15;7.18;;;2.97;;
29934;SDS011;19905;53.370;-6.314;2023-05-27T12:44:45;9.20;;;4.68;;
29934;SDS011;19905;53.370;-6.314;2023-05-27T12:49:48;5.50;;;2.53;;
29934;SDS011;19905;53.370;-6.314;2023-05-27T12:52:24;8.82;;;2.40;;
29934;SDS011;19905;53.370;-6.314;2023-05-27T12:54:52;8.88;;;3.08;;
29934;SDS011;19905;53.370;-6.314;2023-05-27T12:57:22;5.78;;;2.42;;
29934;SDS011;19905;53.370;-6.314;2023-05-27T12:59:53;8.02;;;3.15;;
29934;SDS011;19905;53.370;-6.314;2023-05-27T13:02:27;7.63;;;2.80;;
29934;SDS011;19905;53.370;-6.314;2023-05-27T13:04:57;6.28;;;2.85;;
29934;SDS011;19905;53.370;-6.314;2023-05-27T13:10:11;5.57;;;2.88;;
29934;SDS011;19905;53.370;-6.314;2023-05-27T13:12:50;7.60;;;2.88;;
29934;SDS011;19905;53.370;-6.314;2023-05-27T13:15:20;5.88;;;2.88;;
29934;SDS011;19905;53.370;-6.314;2023-05-27T13:17:51;6.75;;;3.25;;
29934;SDS011;19905;53.370;-6.314;2023-05-27T13:20:22;8.98;;;3.10;;
29934;SDS011;19905;53.370;-6.314;2023-05-27T13:22:54;7.60;;;3.20;;
29934;SDS011;19905;53.370;-6.314;2023-05-27T13:25:26;8.27;;;2.72;;
29934;SDS011;19905;53.370;-6.314;2023-05-27T13:27:56;8.55;;;2.70;;
29934;SDS011;19905;53.370;-6.314;2023-05-27T13:30:27;5.63;;;2.47;;
29934;SDS011;19905;53.370;-6.314;2023-05-27T13:32:56;7.20;;;3.25;;
29934;SDS011;19905;53.370;-6.314;2023-05-27T13:35:25;7.57;;;3.65;;
29934;SDS011;19905;53.370;-6.314;2023-05-27T13:37:55;8.57;;;2.88;;
29934;SDS011;19905;53.370;-6.314;2023-05-27T13:40:27;3.35;;;1.90;;
29934;SDS011;19905;53.370;-6.314;2023-05-27T13:42:57;6.35;;;2.40;;
29934;SDS011;19905;53.370;-6.314;2023-05-27T13:45:26;3.75;;;1.90;;
29934;SDS011;19905;53.370;-6.314;2023-05-27T13:47:55;5.30;;;2.13;;
29934;SDS011;19905;53.370;-6.314;2023-05-27T13:50:24;6.35;;;2.13;;
29934;SDS011;19905;53.370;-6.314;2023-05-27T13:52:52;6.82;;;2.20;;
29934;SDS011;19905;53.370;-6.314;2023-05-27T13:55:22;4.35;;;2.33;;
29934;SDS011;19905;53.370;-6.314;2023-05-27T13:57:51;7.03;;;2.20;;
29934;SDS011;19905;53.370;-6.314;2023-05-27T14:00:20;4.53;;;2.05;;
29934;SDS011;19905;53.370;-6.314;2023-05-27T14:02:48;4.53;;;2.08;;
29934;SDS011;19905;53.370;-6.314;2023-05-27T14:05:18;4.32;;;1.80;;
29934;SDS011;19905;53.370;-6.314;2023-05-27T14:07:47;7.88;;;2.30;;
29934;SDS011;19905;53.370;-6.314;2023-05-27T14:10:15;5.50;;;2.50;;
29934;SDS011;19905;53.370;-6.314;2023-05-27T14:12:46;7.32;;;3.22;;
29934;SDS011;19905;53.370;-6.314;2023-05-27T14:15:15;5.47;;;2.50;;
29934;SDS011;19905;53.370;-6.314;2023-05-27T14:17:45;6.35;;;2.80;;
29934;SDS011;19905;53.370;-6.314;2023-05-27T14:20:13;4.78;;;2.67;;
29934;SDS011;19905;53.370;-6.314;2023-05-27T14:22:42;7.72;;;3.42;;
29934;SDS011;19905;53.370;-6.314;2023-05-27T14:25:11;7.32;;;3.15;;
29934;SDS011;19905;53.370;-6.314;2023-05-27T14:27:48;5.43;;;3.22;;
29934;SDS011;19905;53.370;-6.314;2023-05-27T14:30:17;5.82;;;2.90;;
29934;SDS011;19905;53.370;-6.314;2023-05-27T14:32:46;7.50;;;3.20;;
29934;SDS011;19905;53.370;-6.314;2023-05-27T14:35:16;4.68;;;2.60;;
29934;SDS011;19905;53.370;-6.314;2023-05-27T14:37:51;5.05;;;3.00;;
29934;SDS011;19905;53.370;-6.314;2023-05-27T14:40:23;5.82;;;3.13;;
29934;SDS011;19905;53.370;-6.314;2023-05-27T14:42:55;6.28;;;2.95;;
29934;SDS011;19905;53.370;-6.314;2023-05-27T14:45:25;8.50;;;2.70;;
29934;SDS011;19905;53.370;-6.314;2023-05-27T14:47:54;6.07;;;2.60;;
29934;SDS011;19905;53.370;-6.314;2023-05-27T14:50:27;6.80;;;2.42;;
29934;SDS011;19905;53.370;-6.314;2023-05-27T14:52:55;4.53;;;1.98;;
29934;SDS011;19905;53.370;-6.314;2023-05-27T14:55:24;5.93;;;2.10;;
29934;SDS011;19905;53.370;-6.314;2023-05-27T14:57:53;4.82;;;2.03;;
29934;SDS011;19905;53.370;-6.314;2023-05-27T15:00:23;5.57;;;2.20;;
29934;SDS011;19905;53.370;-6.314;2023-05-27T15:02:51;5.68;;;2.03;;